sensor_id;sensor_type;location;lat;lon;timestamp;P1;durP1;ratioP1;P2;durP2;ratioP2
11887;SDS011;6003;42.756;23.130;2023-08-30T00:01:02;3.87;;;2.90;;
11887;SDS011;6003;42.756;23.130;2023-08-30T00:03:29;5.70;;;2.90;;
11887;SDS011;6003;42.756;23.130;2023-08-30T00:06:01;3.67;;;2.80;;
11887;SDS011;6003;42.756;23.130;2023-08-30T00:08:28;6.83;;;3.00;;
11887;SDS011;6003;42.756;23.130;2023-08-30T00:10:55;3.33;;;2.90;;
11887;SDS011;6003;42.756;23.130;2023-08-30T00:13:23;4.60;;;3.10;;
11887;SDS011;6003;42.756;23.130;2023-08-30T00:15:50;4.97;;;2.83;;
11887;SDS011;6003;42.756;23.130;2023-08-30T00:18:18;3.17;;;2.87;;
11887;SDS011;6003;42.756;23.130;2023-08-30T00:20:45;3.13;;;2.60;;
11887;SDS011;6003;42.756;23.130;2023-08-30T00:23:12;3.00;;;2.70;;
11887;SDS011;6003;42.756;23.130;2023-08-30T00:25:39;4.40;;;2.70;;
11887;SDS011;6003;42.756;23.130;2023-08-30T00:28:06;3.37;;;2.60;;
11887;SDS011;6003;42.756;23.130;2023-08-30T00:30:33;4.03;;;2.87;;
11887;SDS011;6003;42.756;23.130;2023-08-30T00:33:00;4.77;;;3.03;;
11887;SDS011;6003;42.756;23.130;2023-08-30T00:35:28;5.17;;;3.60;;
11887;SDS011;6003;42.756;23.130;2023-08-30T00:37:55;7.03;;;2.93;;
11887;SDS011;6003;42.756;23.130;2023-08-30T00:40:22;3.93;;;3.33;;
11887;SDS011;6003;42.756;23.130;2023-08-30T00:42:50;4.20;;;3.10;;
11887;SDS011;6003;42.756;23.130;2023-08-30T00:45:18;5.63;;;3.27;;
11887;SDS011;6003;42.756;23.130;2023-08-30T00:47:45;3.57;;;2.70;;
11887;SDS011;6003;42.756;23.130;2023-08-30T00:50:12;3.17;;;2.67;;
11887;SDS011;6003;42.756;23.130;2023-08-30T00:52:41;7.90;;;3.30;;
11887;SDS011;6003;42.756;23.130;2023-08-30T00:55:08;6.17;;;3.07;;
11887;SDS011;6003;42.756;23.130;2023-08-30T00:57:36;5.20;;;3.23;;
11887;SDS011;6003;42.756;23.130;2023-08-30T01:00:04;6.73;;;3.77;;
11887;SDS011;6003;42.756;23.130;2023-08-30T01:02:32;6.30;;;4.03;;
11887;SDS011;6003;42.756;23.130;2023-08-30T01:05:00;3.90;;;3.20;;
11887;SDS011;6003;42.756;23.130;2023-08-30T01:07:27;4.93;;;3.20;;
11887;SDS011;6003;42.756;23.130;2023-08-30T01:12:37;7.70;;;3.30;;
11887;SDS011;6003;42.756;23.130;2023-08-30T01:15:09;6.03;;;3.43;;
11887;SDS011;6003;42.756;23.130;2023-08-30T01:17:42;3.13;;;2.90;;
11887;SDS011;6003;42.756;23.130;2023-08-30T01:20:10;6.60;;;3.87;;
11887;SDS011;6003;42.756;23.130;2023-08-30T01:22:43;3.00;;;2.50;;
11887;SDS011;6003;42.756;23.130;2023-08-30T01:25:20;3.07;;;2.60;;
11887;SDS011;6003;42.756;23.130;2023-08-30T01:27:59;3.07;;;2.60;;
11887;SDS011;6003;42.756;23.130;2023-08-30T01:30:30;8.10;;;3.20;;
11887;SDS011;6003;42.756;23.130;2023-08-30T01:32:58;3.37;;;2.70;;
11887;SDS011;6003;42.756;23.130;2023-08-30T01:35:26;6.20;;;3.10;;
11887;SDS011;6003;42.756;23.130;2023-08-30T01:37:58;8.07;;;3.23;;
11887;SDS011;6003;42.756;23.130;2023-08-30T01:40:26;3.53;;;3.00;;
11887;SDS011;6003;42.756;23.130;2023-08-30T01:42:56;3.20;;;2.90;;
11887;SDS011;6003;42.756;23.130;2023-08-30T01:45:26;3.93;;;2.50;;
11887;SDS011;6003;42.756;23.130;2023-08-30T01:47:54;3.80;;;3.00;;
11887;SDS011;6003;42.756;23.130;2023-08-30T01:50:23;4.90;;;3.23;;
11887;SDS011;6003;42.756;23.130;2023-08-30T01:52:52;3.27;;;2.90;;
11887;SDS011;6003;42.756;23.130;2023-08-30T01:55:20;3.80;;;3.33;;
11887;SDS011;6003;42.756;23.130;2023-08-30T01:57:48;3.37;;;2.60;;
11887;SDS011;6003;42.756;23.130;2023-08-30T02:00:15;4.70;;;3.03;;
11887;SDS011;6003;42.756;23.130;2023-08-30T02:02:43;6.53;;;3.23;;
11887;SDS011;6003;42.756;23.130;2023-08-30T02:05:10;9.17;;;3.07;;
11887;SDS011;6003;42.756;23.130;2023-08-30T02:07:39;4.13;;;3.03;;
11887;SDS011;6003;42.756;23.130;2023-08-30T02:10:15;4.20;;;2.63;;
11887;SDS011;6003;42.756;23.130;2023-08-30T02:12:46;2.90;;;2.70;;
11887;SDS011;6003;42.756;23.130;2023-08-30T02:15:14;3.03;;;2.73;;
11887;SDS011;6003;42.756;23.130;2023-08-30T02:17:45;4.97;;;2.93;;
11887;SDS011;6003;42.756;23.130;2023-08-30T02:20:12;2.57;;;2.37;;
11887;SDS011;6003;42.756;23.130;2023-08-30T02:22:39;4.77;;;2.83;;
11887;SDS011;6003;42.756;23.130;2023-08-30T02:25:06;8.40;;;3.33;;
11887;SDS011;6003;42.756;23.130;2023-08-30T02:27:34;3.90;;;2.50;;
11887;SDS011;6003;42.756;23.130;2023-08-30T02:30:01;4.97;;;2.93;;
11887;SDS011;6003;42.756;23.130;2023-08-30T02:32:28;8.97;;;3.33;;
11887;SDS011;6003;42.756;23.130;2023-08-30T02:34:57;2.97;;;2.77;;
11887;SDS011;6003;42.756;23.130;2023-08-30T02:37:23;2.90;;;2.63;;
11887;SDS011;6003;42.756;23.130;2023-08-30T02:39:50;6.33;;;3.40;;
11887;SDS011;6003;42.756;23.130;2023-08-30T02:42:17;3.10;;;2.50;;
11887;SDS011;6003;42.756;23.130;2023-08-30T02:44:44;5.33;;;2.70;;
11887;SDS011;6003;42.756;23.130;2023-08-30T02:47:11;3.87;;;2.83;;
11887;SDS011;6003;42.756;23.130;2023-08-30T02:49:38;3.83;;;2.90;;
11887;SDS011;6003;42.756;23.130;2023-08-30T02:52:06;4.10;;;2.77;;
11887;SDS011;6003;42.756;23.130;2023-08-30T02:54:33;3.97;;;2.50;;
11887;SDS011;6003;42.756;23.130;2023-08-30T02:57:00;4.33;;;3.30;;
11887;SDS011;6003;42.756;23.130;2023-08-30T02:59:37;3.03;;;2.73;;
11887;SDS011;6003;42.756;23.130;2023-08-30T03:02:04;4.93;;;3.00;;
11887;SDS011;6003;42.756;23.130;2023-08-30T03:04:31;6.63;;;3.37;;
11887;SDS011;6003;42.756;23.130;2023-08-30T03:06:58;2.90;;;2.47;;
11887;SDS011;6003;42.756;23.130;2023-08-30T03:09:26;4.53;;;2.80;;
11887;SDS011;6003;42.756;23.130;2023-08-30T03:11:53;7.27;;;2.77;;
11887;SDS011;6003;42.756;23.130;2023-08-30T03:14:20;2.70;;;2.30;;
11887;SDS011;6003;42.756;23.130;2023-08-30T03:16:47;3.93;;;2.20;;
11887;SDS011;6003;42.756;23.130;2023-08-30T03:22:02;3.97;;;2.70;;
11887;SDS011;6003;42.756;23.130;2023-08-30T03:24:30;2.97;;;2.53;;
11887;SDS011;6003;42.756;23.130;2023-08-30T03:26:57;4.67;;;2.60;;
11887;SDS011;6003;42.756;23.130;2023-08-30T03:29:24;3.53;;;2.77;;
11887;SDS011;6003;42.756;23.130;2023-08-30T03:31:51;8.83;;;2.80;;
11887;SDS011;6003;42.756;23.130;2023-08-30T03:34:18;3.40;;;2.27;;
11887;SDS011;6003;42.756;23.130;2023-08-30T03:36:45;3.37;;;2.07;;
11887;SDS011;6003;42.756;23.130;2023-08-30T03:39:19;2.43;;;2.23;;
11887;SDS011;6003;42.756;23.130;2023-08-30T03:41:47;3.00;;;2.70;;
11887;SDS011;6003;42.756;23.130;2023-08-30T03:44:14;3.20;;;2.60;;
11887;SDS011;6003;42.756;23.130;2023-08-30T03:46:41;2.67;;;2.17;;
11887;SDS011;6003;42.756;23.130;2023-08-30T03:49:09;5.73;;;2.60;;
11887;SDS011;6003;42.756;23.130;2023-08-30T03:51:36;3.57;;;2.63;;
11887;SDS011;6003;42.756;23.130;2023-08-30T03:54:02;6.60;;;2.57;;
11887;SDS011;6003;42.756;23.130;2023-08-30T03:56:29;8.33;;;2.63;;
11887;SDS011;6003;42.756;23.130;2023-08-30T03:58:58;8.37;;;3.43;;
11887;SDS011;6003;42.756;23.130;2023-08-30T04:01:24;10.43;;;4.67;;
11887;SDS011;6003;42.756;23.130;2023-08-30T04:03:51;14.50;;;4.93;;
11887;SDS011;6003;42.756;23.130;2023-08-30T04:06:18;8.53;;;4.40;;
11887;SDS011;6003;42.756;23.130;2023-08-30T04:08:46;4.17;;;3.07;;
11887;SDS011;6003;42.756;23.130;2023-08-30T04:11:13;2.87;;;2.57;;
11887;SDS011;6003;42.756;23.130;2023-08-30T04:13:40;3.70;;;2.77;;
11887;SDS011;6003;42.756;23.130;2023-08-30T04:16:08;6.17;;;2.50;;
11887;SDS011;6003;42.756;23.130;2023-08-30T04:18:35;5.87;;;2.90;;
11887;SDS011;6003;42.756;23.130;2023-08-30T04:21:02;5.53;;;2.93;;
11887;SDS011;6003;42.756;23.130;2023-08-30T04:23:29;5.70;;;2.57;;
11887;SDS011;6003;42.756;23.130;2023-08-30T04:25:55;3.00;;;2.17;;
11887;SDS011;6003;42.756;23.130;2023-08-30T04:28:22;2.23;;;1.80;;
11887;SDS011;6003;42.756;23.130;2023-08-30T04:30:49;4.03;;;2.33;;
11887;SDS011;6003;42.756;23.130;2023-08-30T04:33:21;3.07;;;1.67;;
11887;SDS011;6003;42.756;23.130;2023-08-30T04:35:49;5.77;;;2.70;;
11887;SDS011;6003;42.756;23.130;2023-08-30T04:38:17;6.40;;;2.50;;
11887;SDS011;6003;42.756;23.130;2023-08-30T04:40:43;4.60;;;2.33;;
11887;SDS011;6003;42.756;23.130;2023-08-30T04:43:10;8.87;;;2.53;;
11887;SDS011;6003;42.756;23.130;2023-08-30T04:45:37;1.87;;;1.63;;
11887;SDS011;6003;42.756;23.130;2023-08-30T04:48:05;2.97;;;2.30;;
11887;SDS011;6003;42.756;23.130;2023-08-30T04:50:34;5.10;;;1.80;;
11887;SDS011;6003;42.756;23.130;2023-08-30T04:53:01;4.10;;;2.40;;
11887;SDS011;6003;42.756;23.130;2023-08-30T04:55:28;5.97;;;2.30;;
11887;SDS011;6003;42.756;23.130;2023-08-30T04:57:55;5.93;;;2.57;;
11887;SDS011;6003;42.756;23.130;2023-08-30T05:00:22;3.00;;;2.00;;
11887;SDS011;6003;42.756;23.130;2023-08-30T05:02:49;4.07;;;2.40;;
11887;SDS011;6003;42.756;23.130;2023-08-30T05:05:16;3.30;;;2.10;;
11887;SDS011;6003;42.756;23.130;2023-08-30T05:07:44;3.50;;;1.73;;
11887;SDS011;6003;42.756;23.130;2023-08-30T05:10:11;6.40;;;2.43;;
11887;SDS011;6003;42.756;23.130;2023-08-30T05:12:38;6.90;;;2.87;;
11887;SDS011;6003;42.756;23.130;2023-08-30T05:15:06;7.60;;;2.73;;
11887;SDS011;6003;42.756;23.130;2023-08-30T05:17:33;3.70;;;2.07;;
11887;SDS011;6003;42.756;23.130;2023-08-30T05:20:00;2.47;;;2.10;;
11887;SDS011;6003;42.756;23.130;2023-08-30T05:22:28;6.57;;;2.27;;
11887;SDS011;6003;42.756;23.130;2023-08-30T05:24:56;2.90;;;2.07;;
11887;SDS011;6003;42.756;23.130;2023-08-30T05:27:23;7.10;;;2.23;;
11887;SDS011;6003;42.756;23.130;2023-08-30T05:29:50;2.30;;;2.10;;
11887;SDS011;6003;42.756;23.130;2023-08-30T05:32:17;3.63;;;2.03;;
11887;SDS011;6003;42.756;23.130;2023-08-30T05:34:43;6.10;;;2.30;;
11887;SDS011;6003;42.756;23.130;2023-08-30T05:37:10;2.30;;;2.07;;
11887;SDS011;6003;42.756;23.130;2023-08-30T05:39:37;4.40;;;2.13;;
11887;SDS011;6003;42.756;23.130;2023-08-30T05:42:06;6.00;;;2.13;;
11887;SDS011;6003;42.756;23.130;2023-08-30T05:44:33;3.03;;;1.73;;
11887;SDS011;6003;42.756;23.130;2023-08-30T05:47:00;2.73;;;2.00;;
11887;SDS011;6003;42.756;23.130;2023-08-30T05:49:26;4.07;;;2.00;;
11887;SDS011;6003;42.756;23.130;2023-08-30T05:51:53;3.60;;;1.97;;
11887;SDS011;6003;42.756;23.130;2023-08-30T05:54:20;2.50;;;1.53;;
11887;SDS011;6003;42.756;23.130;2023-08-30T05:56:47;4.70;;;2.10;;
11887;SDS011;6003;42.756;23.130;2023-08-30T05:59:15;2.53;;;1.83;;
11887;SDS011;6003;42.756;23.130;2023-08-30T06:01:42;3.60;;;2.20;;
11887;SDS011;6003;42.756;23.130;2023-08-30T06:04:09;5.17;;;2.43;;
11887;SDS011;6003;42.756;23.130;2023-08-30T06:06:35;3.63;;;2.03;;
11887;SDS011;6003;42.756;23.130;2023-08-30T06:09:02;3.60;;;2.40;;
11887;SDS011;6003;42.756;23.130;2023-08-30T06:11:30;7.07;;;2.87;;
11887;SDS011;6003;42.756;23.130;2023-08-30T06:13:56;6.60;;;2.40;;
11887;SDS011;6003;42.756;23.130;2023-08-30T06:16:25;6.20;;;2.43;;
11887;SDS011;6003;42.756;23.130;2023-08-30T06:18:52;5.33;;;2.60;;
11887;SDS011;6003;42.756;23.130;2023-08-30T06:21:19;4.93;;;2.30;;
11887;SDS011;6003;42.756;23.130;2023-08-30T06:23:45;3.40;;;1.90;;
11887;SDS011;6003;42.756;23.130;2023-08-30T06:26:12;1.80;;;1.63;;
11887;SDS011;6003;42.756;23.130;2023-08-30T06:28:57;1.57;;;1.47;;
11887;SDS011;6003;42.756;23.130;2023-08-30T06:31:25;4.23;;;2.30;;
11887;SDS011;6003;42.756;23.130;2023-08-30T06:33:54;2.83;;;1.83;;
11887;SDS011;6003;42.756;23.130;2023-08-30T06:36:20;2.53;;;1.60;;
11887;SDS011;6003;42.756;23.130;2023-08-30T06:38:48;3.03;;;1.83;;
11887;SDS011;6003;42.756;23.130;2023-08-30T06:41:15;3.27;;;1.90;;
11887;SDS011;6003;42.756;23.130;2023-08-30T06:43:42;1.70;;;1.60;;
11887;SDS011;6003;42.756;23.130;2023-08-30T06:46:09;4.00;;;2.37;;
11887;SDS011;6003;42.756;23.130;2023-08-30T06:48:37;4.47;;;2.93;;
11887;SDS011;6003;42.756;23.130;2023-08-30T06:51:04;6.03;;;2.50;;
11887;SDS011;6003;42.756;23.130;2023-08-30T06:53:30;5.80;;;2.60;;
11887;SDS011;6003;42.756;23.130;2023-08-30T06:55:57;5.23;;;2.10;;
11887;SDS011;6003;42.756;23.130;2023-08-30T06:58:25;2.90;;;1.83;;
11887;SDS011;6003;42.756;23.130;2023-08-30T07:00:52;5.47;;;2.13;;
11887;SDS011;6003;42.756;23.130;2023-08-30T07:03:19;2.33;;;1.80;;
11887;SDS011;6003;42.756;23.130;2023-08-30T07:05:47;1.70;;;1.60;;
11887;SDS011;6003;42.756;23.130;2023-08-30T07:08:14;2.50;;;1.63;;
11887;SDS011;6003;42.756;23.130;2023-08-30T07:10:41;5.40;;;2.27;;
11887;SDS011;6003;42.756;23.130;2023-08-30T07:13:08;3.57;;;1.67;;
11887;SDS011;6003;42.756;23.130;2023-08-30T07:15:37;2.83;;;1.70;;
11887;SDS011;6003;42.756;23.130;2023-08-30T07:18:04;4.20;;;2.20;;
11887;SDS011;6003;42.756;23.130;2023-08-30T07:20:31;4.13;;;2.20;;
11887;SDS011;6003;42.756;23.130;2023-08-30T07:23:00;4.30;;;2.17;;
11887;SDS011;6003;42.756;23.130;2023-08-30T07:25:27;6.10;;;2.20;;
11887;SDS011;6003;42.756;23.130;2023-08-30T07:27:54;3.33;;;1.90;;
11887;SDS011;6003;42.756;23.130;2023-08-30T07:30:21;4.07;;;1.80;;
11887;SDS011;6003;42.756;23.130;2023-08-30T07:32:48;4.10;;;2.03;;
11887;SDS011;6003;42.756;23.130;2023-08-30T07:35:14;1.80;;;1.70;;
11887;SDS011;6003;42.756;23.130;2023-08-30T07:37:41;6.23;;;2.03;;
11887;SDS011;6003;42.756;23.130;2023-08-30T07:40:10;6.80;;;2.23;;
11887;SDS011;6003;42.756;23.130;2023-08-30T07:42:37;4.03;;;1.97;;
11887;SDS011;6003;42.756;23.130;2023-08-30T07:45:05;3.93;;;2.30;;
11887;SDS011;6003;42.756;23.130;2023-08-30T07:47:32;5.73;;;2.30;;
11887;SDS011;6003;42.756;23.130;2023-08-30T07:49:59;3.37;;;1.83;;
11887;SDS011;6003;42.756;23.130;2023-08-30T07:52:26;5.27;;;2.17;;
11887;SDS011;6003;42.756;23.130;2023-08-30T07:54:53;5.57;;;2.30;;
11887;SDS011;6003;42.756;23.130;2023-08-30T07:57:21;4.60;;;2.07;;
11887;SDS011;6003;42.756;23.130;2023-08-30T07:59:48;1.90;;;1.80;;
11887;SDS011;6003;42.756;23.130;2023-08-30T08:02:15;4.40;;;2.13;;
11887;SDS011;6003;42.756;23.130;2023-08-30T08:04:41;2.43;;;1.80;;
11887;SDS011;6003;42.756;23.130;2023-08-30T08:07:08;1.93;;;1.83;;
11887;SDS011;6003;42.756;23.130;2023-08-30T08:09:35;6.88;;;2.30;;
11887;SDS011;6003;42.756;23.130;2023-08-30T08:12:02;6.00;;;2.03;;
11887;SDS011;6003;42.756;23.130;2023-08-30T08:14:31;2.58;;;1.48;;
11887;SDS011;6003;42.756;23.130;2023-08-30T08:16:58;4.70;;;2.03;;
11887;SDS011;6003;42.756;23.130;2023-08-30T08:19:25;3.47;;;1.65;;
11887;SDS011;6003;42.756;23.130;2023-08-30T08:21:52;5.18;;;1.75;;
11887;SDS011;6003;42.756;23.130;2023-08-30T08:24:19;4.22;;;1.92;;
11887;SDS011;6003;42.756;23.130;2023-08-30T08:26:46;2.35;;;1.80;;
11887;SDS011;6003;42.756;23.130;2023-08-30T08:29:13;1.63;;;1.52;;
11887;SDS011;6003;42.756;23.130;2023-08-30T08:31:41;3.58;;;1.60;;
11887;SDS011;6003;42.756;23.130;2023-08-30T08:34:09;1.90;;;1.80;;
11887;SDS011;6003;42.756;23.130;2023-08-30T08:36:37;4.00;;;1.90;;
11887;SDS011;6003;42.756;23.130;2023-08-30T08:39:04;5.93;;;2.00;;
11887;SDS011;6003;42.756;23.130;2023-08-30T08:41:34;2.92;;;1.80;;
11887;SDS011;6003;42.756;23.130;2023-08-30T08:44:05;5.72;;;2.20;;
11887;SDS011;6003;42.756;23.130;2023-08-30T08:46:34;3.80;;;1.88;;
11887;SDS011;6003;42.756;23.130;2023-08-30T08:49:18;4.45;;;1.92;;
11887;SDS011;6003;42.756;23.130;2023-08-30T08:51:45;3.90;;;2.08;;
11887;SDS011;6003;42.756;23.130;2023-08-30T08:54:12;1.88;;;1.67;;
11887;SDS011;6003;42.756;23.130;2023-08-30T08:56:39;5.82;;;1.92;;
11887;SDS011;6003;42.756;23.130;2023-08-30T08:59:06;2.20;;;1.73;;
11887;SDS011;6003;42.756;23.130;2023-08-30T09:01:34;7.05;;;2.05;;
11887;SDS011;6003;42.756;23.130;2023-08-30T09:04:04;6.90;;;2.20;;
11887;SDS011;6003;42.756;23.130;2023-08-30T09:06:34;2.40;;;1.52;;
11887;SDS011;6003;42.756;23.130;2023-08-30T09:09:01;3.28;;;1.90;;
11887;SDS011;6003;42.756;23.130;2023-08-30T09:11:29;6.90;;;2.25;;
11887;SDS011;6003;42.756;23.130;2023-08-30T09:13:56;3.63;;;1.90;;
11887;SDS011;6003;42.756;23.130;2023-08-30T09:16:23;5.63;;;2.15;;
11887;SDS011;6003;42.756;23.130;2023-08-30T09:18:56;5.60;;;2.13;;
11887;SDS011;6003;42.756;23.130;2023-08-30T09:21:24;4.10;;;1.90;;
11887;SDS011;6003;42.756;23.130;2023-08-30T09:23:58;3.65;;;2.28;;
11887;SDS011;6003;42.756;23.130;2023-08-30T09:26:25;3.50;;;2.10;;
11887;SDS011;6003;42.756;23.130;2023-08-30T09:28:53;5.00;;;2.25;;
11887;SDS011;6003;42.756;23.130;2023-08-30T09:31:20;5.38;;;2.28;;
11887;SDS011;6003;42.756;23.130;2023-08-30T09:33:47;2.53;;;2.03;;
11887;SDS011;6003;42.756;23.130;2023-08-30T09:36:14;2.50;;;2.13;;
11887;SDS011;6003;42.756;23.130;2023-08-30T09:38:41;2.20;;;1.75;;
11887;SDS011;6003;42.756;23.130;2023-08-30T09:41:16;3.17;;;2.08;;
11887;SDS011;6003;42.756;23.130;2023-08-30T09:43:44;1.92;;;1.80;;
11887;SDS011;6003;42.756;23.130;2023-08-30T09:46:12;4.45;;;2.00;;
11887;SDS011;6003;42.756;23.130;2023-08-30T09:48:39;3.25;;;1.88;;
11887;SDS011;6003;42.756;23.130;2023-08-30T09:51:07;3.78;;;2.25;;
11887;SDS011;6003;42.756;23.130;2023-08-30T09:53:41;2.33;;;1.85;;
11887;SDS011;6003;42.756;23.130;2023-08-30T09:56:11;4.20;;;2.22;;
11887;SDS011;6003;42.756;23.130;2023-08-30T09:58:41;5.60;;;2.08;;
11887;SDS011;6003;42.756;23.130;2023-08-30T10:01:09;3.03;;;2.03;;
11887;SDS011;6003;42.756;23.130;2023-08-30T10:03:37;2.88;;;2.10;;
11887;SDS011;6003;42.756;23.130;2023-08-30T10:06:05;7.68;;;2.65;;
11887;SDS011;6003;42.756;23.130;2023-08-30T10:08:33;5.05;;;2.25;;
11887;SDS011;6003;42.756;23.130;2023-08-30T10:11:02;4.50;;;1.98;;
11887;SDS011;6003;42.756;23.130;2023-08-30T10:13:29;6.32;;;2.25;;
11887;SDS011;6003;42.756;23.130;2023-08-30T10:16:00;2.75;;;1.98;;
11887;SDS011;6003;42.756;23.130;2023-08-30T10:18:29;3.85;;;2.13;;
11887;SDS011;6003;42.756;23.130;2023-08-30T10:20:59;5.32;;;2.33;;
11887;SDS011;6003;42.756;23.130;2023-08-30T10:23:33;4.70;;;2.55;;
11887;SDS011;6003;42.756;23.130;2023-08-30T10:26:03;6.03;;;2.45;;
11887;SDS011;6003;42.756;23.130;2023-08-30T10:28:45;5.88;;;2.50;;
11887;SDS011;6003;42.756;23.130;2023-08-30T10:31:14;9.50;;;2.72;;
11887;SDS011;6003;42.756;23.130;2023-08-30T10:33:46;2.17;;;2.08;;
11887;SDS011;6003;42.756;23.130;2023-08-30T10:36:20;2.60;;;2.40;;
11887;SDS011;6003;42.756;23.130;2023-08-30T10:38:48;5.30;;;2.50;;
11887;SDS011;6003;42.756;23.130;2023-08-30T10:41:19;3.85;;;2.45;;
11887;SDS011;6003;42.756;23.130;2023-08-30T10:43:49;7.65;;;2.55;;
11887;SDS011;6003;42.756;23.130;2023-08-30T10:46:28;3.08;;;2.15;;
11887;SDS011;6003;42.756;23.130;2023-08-30T10:48:56;5.93;;;2.90;;
11887;SDS011;6003;42.756;23.130;2023-08-30T10:51:34;3.72;;;2.47;;
11887;SDS011;6003;42.756;23.130;2023-08-30T10:54:09;4.47;;;3.03;;
11887;SDS011;6003;42.756;23.130;2023-08-30T10:56:45;2.80;;;2.60;;
11887;SDS011;6003;42.756;23.130;2023-08-30T10:59:16;2.63;;;2.42;;
11887;SDS011;6003;42.756;23.130;2023-08-30T11:01:46;5.45;;;2.45;;
11887;SDS011;6003;42.756;23.130;2023-08-30T11:04:14;5.30;;;2.78;;
11887;SDS011;6003;42.756;23.130;2023-08-30T11:06:42;4.38;;;2.55;;
11887;SDS011;6003;42.756;23.130;2023-08-30T11:09:12;5.03;;;2.42;;
11887;SDS011;6003;42.756;23.130;2023-08-30T11:11:43;2.50;;;2.30;;
11887;SDS011;6003;42.756;23.130;2023-08-30T11:14:10;3.13;;;2.28;;
11887;SDS011;6003;42.756;23.130;2023-08-30T11:16:37;3.05;;;2.40;;
11887;SDS011;6003;42.756;23.130;2023-08-30T11:19:06;5.72;;;2.40;;
11887;SDS011;6003;42.756;23.130;2023-08-30T11:21:34;6.90;;;2.47;;
11887;SDS011;6003;42.756;23.130;2023-08-30T11:24:03;5.50;;;2.08;;
11887;SDS011;6003;42.756;23.130;2023-08-30T11:26:30;4.00;;;2.10;;
11887;SDS011;6003;42.756;23.130;2023-08-30T11:28:57;7.97;;;2.63;;
11887;SDS011;6003;42.756;23.130;2023-08-30T11:31:24;5.25;;;2.60;;
11887;SDS011;6003;42.756;23.130;2023-08-30T11:33:52;4.30;;;2.35;;
11887;SDS011;6003;42.756;23.130;2023-08-30T11:36:22;7.50;;;2.88;;
11887;SDS011;6003;42.756;23.130;2023-08-30T11:38:50;3.70;;;2.38;;
11887;SDS011;6003;42.756;23.130;2023-08-30T11:41:17;2.35;;;2.03;;
11887;SDS011;6003;42.756;23.130;2023-08-30T11:43:47;8.77;;;2.70;;
11887;SDS011;6003;42.756;23.130;2023-08-30T11:46:14;2.90;;;2.40;;
11887;SDS011;6003;42.756;23.130;2023-08-30T11:48:41;1.90;;;1.80;;
11887;SDS011;6003;42.756;23.130;2023-08-30T11:51:08;2.92;;;1.83;;
11887;SDS011;6003;42.756;23.130;2023-08-30T11:53:37;2.88;;;2.40;;
11887;SDS011;6003;42.756;23.130;2023-08-30T11:56:05;6.22;;;2.78;;
11887;SDS011;6003;42.756;23.130;2023-08-30T11:58:33;4.60;;;2.33;;
11887;SDS011;6003;42.756;23.130;2023-08-30T12:01:01;5.97;;;2.60;;
11887;SDS011;6003;42.756;23.130;2023-08-30T12:03:28;4.63;;;2.42;;
11887;SDS011;6003;42.756;23.130;2023-08-30T12:05:55;6.78;;;2.63;;
11887;SDS011;6003;42.756;23.130;2023-08-30T12:08:23;5.90;;;2.53;;
11887;SDS011;6003;42.756;23.130;2023-08-30T12:10:53;6.43;;;2.35;;
11887;SDS011;6003;42.756;23.130;2023-08-30T12:13:23;4.43;;;2.30;;
11887;SDS011;6003;42.756;23.130;2023-08-30T12:15:50;5.32;;;2.42;;
11887;SDS011;6003;42.756;23.130;2023-08-30T12:18:17;10.85;;;3.05;;
11887;SDS011;6003;42.756;23.130;2023-08-30T12:20:53;14.75;;;3.80;;
11887;SDS011;6003;42.756;23.130;2023-08-30T12:23:22;7.50;;;2.88;;
11887;SDS011;6003;42.756;23.130;2023-08-30T12:26:01;13.65;;;3.42;;
11887;SDS011;6003;42.756;23.130;2023-08-30T12:28:29;7.40;;;2.58;;
11887;SDS011;6003;42.756;23.130;2023-08-30T12:30:57;18.27;;;3.65;;
11887;SDS011;6003;42.756;23.130;2023-08-30T12:33:24;8.05;;;2.70;;
11887;SDS011;6003;42.756;23.130;2023-08-30T12:35:51;16.45;;;3.75;;
11887;SDS011;6003;42.756;23.130;2023-08-30T12:38:18;9.38;;;2.63;;
11887;SDS011;6003;42.756;23.130;2023-08-30T12:40:45;14.13;;;3.63;;
11887;SDS011;6003;42.756;23.130;2023-08-30T12:43:14;7.47;;;3.08;;
11887;SDS011;6003;42.756;23.130;2023-08-30T12:45:41;15.15;;;4.00;;
11887;SDS011;6003;42.756;23.130;2023-08-30T12:48:09;7.47;;;2.85;;
11887;SDS011;6003;42.756;23.130;2023-08-30T12:50:38;5.53;;;2.30;;
11887;SDS011;6003;42.756;23.130;2023-08-30T12:53:05;5.95;;;2.40;;
11887;SDS011;6003;42.756;23.130;2023-08-30T12:55:32;9.48;;;2.97;;
11887;SDS011;6003;42.756;23.130;2023-08-30T12:58:00;9.07;;;2.75;;
11887;SDS011;6003;42.756;23.130;2023-08-30T13:00:36;6.22;;;2.47;;
11887;SDS011;6003;42.756;23.130;2023-08-30T13:03:03;12.15;;;3.33;;
11887;SDS011;6003;42.756;23.130;2023-08-30T13:05:31;9.45;;;2.83;;
11887;SDS011;6003;42.756;23.130;2023-08-30T13:07:58;10.95;;;3.15;;
11887;SDS011;6003;42.756;23.130;2023-08-30T13:10:25;11.98;;;3.35;;
11887;SDS011;6003;42.756;23.130;2023-08-30T13:12:51;16.83;;;4.13;;
11887;SDS011;6003;42.756;23.130;2023-08-30T13:15:18;6.07;;;2.30;;
11887;SDS011;6003;42.756;23.130;2023-08-30T13:17:47;10.57;;;2.95;;
11887;SDS011;6003;42.756;23.130;2023-08-30T13:20:13;7.65;;;2.58;;
11887;SDS011;6003;42.756;23.130;2023-08-30T13:22:40;12.15;;;2.92;;
11887;SDS011;6003;42.756;23.130;2023-08-30T13:25:07;6.40;;;2.17;;
11887;SDS011;6003;42.756;23.130;2023-08-30T13:27:34;8.27;;;2.65;;
11887;SDS011;6003;42.756;23.130;2023-08-30T13:30:01;10.50;;;2.85;;
11887;SDS011;6003;42.756;23.130;2023-08-30T13:32:28;12.18;;;2.95;;
11887;SDS011;6003;42.756;23.130;2023-08-30T13:34:56;10.77;;;2.55;;
11887;SDS011;6003;42.756;23.130;2023-08-30T13:37:24;6.45;;;2.53;;
11887;SDS011;6003;42.756;23.130;2023-08-30T13:39:52;15.13;;;3.33;;
11887;SDS011;6003;42.756;23.130;2023-08-30T13:42:19;7.93;;;2.53;;
11887;SDS011;6003;42.756;23.130;2023-08-30T13:44:46;14.27;;;3.17;;
11887;SDS011;6003;42.756;23.130;2023-08-30T13:47:12;5.15;;;2.35;;
11887;SDS011;6003;42.756;23.130;2023-08-30T13:49:41;11.20;;;3.15;;
11887;SDS011;6003;42.756;23.130;2023-08-30T13:52:09;8.80;;;2.80;;
11887;SDS011;6003;42.756;23.130;2023-08-30T13:54:36;8.00;;;2.72;;
11887;SDS011;6003;42.756;23.130;2023-08-30T13:57:03;12.23;;;3.00;;
11887;SDS011;6003;42.756;23.130;2023-08-30T13:59:30;7.38;;;2.78;;
11887;SDS011;6003;42.756;23.130;2023-08-30T14:01:57;10.65;;;2.53;;
11887;SDS011;6003;42.756;23.130;2023-08-30T14:04:23;12.63;;;3.30;;
11887;SDS011;6003;42.756;23.130;2023-08-30T14:06:50;13.60;;;3.40;;
11887;SDS011;6003;42.756;23.130;2023-08-30T14:09:19;8.15;;;2.40;;
11887;SDS011;6003;42.756;23.130;2023-08-30T14:11:45;10.88;;;3.13;;
11887;SDS011;6003;42.756;23.130;2023-08-30T14:14:12;6.22;;;2.40;;
11887;SDS011;6003;42.756;23.130;2023-08-30T14:16:39;10.13;;;3.03;;
11887;SDS011;6003;42.756;23.130;2023-08-30T14:19:06;10.23;;;2.63;;
11887;SDS011;6003;42.756;23.130;2023-08-30T14:21:33;6.45;;;2.42;;
11887;SDS011;6003;42.756;23.130;2023-08-30T14:24:00;7.70;;;2.35;;
11887;SDS011;6003;42.756;23.130;2023-08-30T14:26:29;8.18;;;2.55;;
11887;SDS011;6003;42.756;23.130;2023-08-30T14:28:55;6.05;;;2.33;;
11887;SDS011;6003;42.756;23.130;2023-08-30T14:31:22;7.20;;;2.47;;
11887;SDS011;6003;42.756;23.130;2023-08-30T14:33:53;5.90;;;2.05;;
11887;SDS011;6003;42.756;23.130;2023-08-30T14:36:22;5.15;;;1.95;;
11887;SDS011;6003;42.756;23.130;2023-08-30T14:38:49;6.40;;;1.95;;
11887;SDS011;6003;42.756;23.130;2023-08-30T14:41:16;2.28;;;1.70;;
11887;SDS011;6003;42.756;23.130;2023-08-30T14:43:44;3.13;;;1.52;;
11887;SDS011;6003;42.756;23.130;2023-08-30T14:46:11;4.00;;;1.48;;
11887;SDS011;6003;42.756;23.130;2023-08-30T14:48:39;2.30;;;1.63;;
11887;SDS011;6003;42.756;23.130;2023-08-30T14:51:05;1.83;;;1.58;;
11887;SDS011;6003;42.756;23.130;2023-08-30T14:53:33;4.25;;;1.73;;
11887;SDS011;6003;42.756;23.130;2023-08-30T14:56:01;3.10;;;1.50;;